Flight Track Log - Related Links

Times and Time Zones

All times are in EDT time to prevent confusion due to time zone crossing. See the UAL4563 flight status page for this flight to view local times or setup timezone preferences in your user account.

Time Position Orientation Groundspeed Altitude Reporting Facility
EDT Latitude Longitude Course Direction KTS MPH feet Rate Location/Type
Fri 07:21:00 PM 41.4194 -81.8375 26° Northeast 158 182 1,700  Level Cleveland Center
Fri 07:22:45 PM 41.5117 -81.7783 26° Northeast 226 260 4,600 2,109 Climbing Cleveland Center
Fri 07:23:45 PM 41.5728 -81.7294 31° Northeast 245 282 7,500 2,550 Climbing Cleveland Center
Fri 07:24:45 PM 41.6275 -81.6664 41° Northeast 261 300 9,700 1,550 Climbing Cleveland Center
Fri 07:25:45 PM 41.6950 -81.5869 41° Northeast 277 319 10,600 1,000 Climbing Cleveland Center
Fri 07:26:45 PM 41.7686 -81.5019 41° Northeast 318 366 11,700 1,400 Climbing Cleveland Center
Fri 07:27:45 PM 41.8361 -81.4108 45° Northeast 337 388 13,400 1,750 Climbing Cleveland Center
Fri 07:28:45 PM 41.8597 -81.2828 76° East 338 389 15,200 1,800 Climbing Cleveland Center
Fri 07:29:45 PM 41.8814 -81.1519 77° East 352 405 17,000 1,550 Climbing Cleveland Center
Fri 07:30:45 PM 41.9008 -81.0239 78° East 352 405 18,300 1,500 Climbing Cleveland Center
Fri 07:31:45 PM 41.9242 -80.8931 76° East 352 405 20,000 1,550 Climbing Cleveland Center
Fri 07:32:45 PM 41.9431 -80.7647 79° East 358 412 21,400 1,300 Climbing Cleveland Center
Fri 07:33:45 PM 41.9619 -80.6419 78° East 358 412 22,600 1,300 Climbing Cleveland Center
Fri 07:34:45 PM 41.9850 -80.5022 77° East 375 432 24,000 1,400 Climbing Cleveland Center
Fri 07:35:45 PM 42.0056 -80.3653 79° East 370 426 25,400 1,300 Climbing Cleveland Center
Fri 07:36:45 PM 42.0283 -80.2253 78° East 375 432 26,600 800 Climbing Cleveland Center
Fri 07:37:45 PM 42.0506 -80.0769 79° East 389 448 27,000 200 Climbing Cleveland Center
Fri 07:38:45 PM 42.0728 -79.9203 79° East 415 478 27,000  Level Cleveland Center
Fri 07:39:45 PM 42.0989 -79.7550 78° East 432 497 27,000  Level Cleveland Center
Fri 07:40:45 PM 42.1225 -79.5839 79° East 444 511 27,000  Level Cleveland Center
Fri 07:41:45 PM 42.1458 -79.4125 80° East 455 524 27,000 350 Level Cleveland Center
Fri 07:42:45 PM 42.1731 -79.2383 78° East 461 531 27,700 1,000 Climbing Cleveland Center
Fri 07:43:45 PM 42.1939 -79.0753 80° East 455 524 29,000 650 Climbing Cleveland Center
Fri 07:44:45 PM 42.2186 -78.8897 80° East 450 518 29,000  Level Cleveland Center
Fri 07:45:45 PM 42.2392 -78.7350 80° East 450 518 29,000  Level Cleveland Center
Fri 07:46:45 PM 42.2611 -78.5603 80° East 456 525 29,000  Level Cleveland Center
Fri 07:47:45 PM 42.2811 -78.3942 81° East 456 525 29,000  Level Cleveland Center
Fri 07:48:45 PM 42.3008 -78.2333 81° East 445 512 29,000  Level Cleveland Center
Fri 07:49:45 PM 42.3219 -78.0556 81° East 438 504 29,000  Level Cleveland Center
Fri 07:50:45 PM 42.3414 -77.8975 80° East 432 497 29,000  Level Cleveland Center
Fri 07:51:45 PM 42.3606 -77.7394 81° East 427 491 29,000  Level Cleveland Center
Fri 07:52:45 PM 42.3794 -77.5839 81° East 427 491 29,000  Level Cleveland Center
Fri 07:55:04 PM 42.4181 -77.2333 81° East 428 493 29,000  Level Boston Center
Fri 07:56:04 PM 42.4350 -77.0742 82° East 428 493 29,000  Level Boston Center
Fri 07:57:04 PM 42.4519 -76.9150 82° East 428 493 29,000  Level Boston Center
Fri 07:58:04 PM 42.4683 -76.7583 82° East 428 493 29,000  Level Boston Center
Fri 07:59:04 PM 42.4869 -76.5964 81° East 428 493 29,000  Level Boston Center
Fri 08:00:04 PM 42.5050 -76.4369 81° East 428 493 29,000  Level Boston Center
Fri 08:01:04 PM 42.5189 -76.2772 83° East 428 493 29,000  Level Boston Center
Fri 08:02:04 PM 42.5367 -76.1175 81° East 428 493 29,000  Level Boston Center
Fri 08:03:04 PM 42.5544 -75.9522 82° East 428 493 29,000  Level Boston Center
Fri 08:04:04 PM 42.5678 -75.7922 83° East 428 493 29,000  Level Boston Center
Fri 08:05:04 PM 42.5828 -75.6267 83° East 428 493 29,000  Level Boston Center
Fri 08:06:04 PM 42.5997 -75.4697 82° East 428 493 29,000  Level Boston Center
Fri 08:07:04 PM 42.6144 -75.3039 83° East 428 493 29,000  Level Boston Center
Fri 08:08:04 PM 42.6308 -75.1408 82° East 428 493 29,000  Level Boston Center
Fri 08:09:04 PM 42.6450 -74.9806 83° East 428 493 29,000  Level Boston Center
Fri 08:10:04 PM 42.6614 -74.8006 83° East 428 493 29,000  Level Boston Center
Fri 08:11:04 PM 42.6753 -74.6344 83° East 428 493 29,000  Level Boston Center
Fri 08:12:04 PM 42.6906 -74.4739 83° East 428 493 29,000 -150 Level Boston Center
Fri 08:13:04 PM 42.7039 -74.3106 84° East 428 493 28,700 -700 Descending Boston Center
Fri 08:14:04 PM 42.7192 -74.1386 83° East 435 501 27,600 -1,050 Descending Boston Center
Fri 08:15:04 PM 42.7319 -73.9664 84° East 447 514 26,600 -1,050 Descending Boston Center
Fri 08:16:04 PM 42.7467 -73.7858 84° East 462 532 25,500 -1,050 Descending Boston Center
Fri 08:17:04 PM 42.7550 -73.6108 86° East 467 537 24,500 -1,050 Descending Boston Center
Fri 08:18:04 PM 42.7608 -73.4328 87° East 467 537 23,400 -1,100 Descending Boston Center
Fri 08:19:04 PM 42.7683 -73.2603 87° East 462 532 22,300 -1,100 Descending Boston Center
Fri 08:20:04 PM 42.7758 -73.0906 86° East 457 526 21,200 -1,350 Descending Boston Center
Fri 08:21:04 PM 42.7828 -72.9125 87° East 457 526 19,600 -1,600 Descending Boston Center
Fri 08:22:04 PM 42.7897 -72.7569 86° East 442 509 18,000 -1,400 Descending Boston Center
Fri 08:23:04 PM 42.7964 -72.6014 87° East 421 484 16,800 -1,600 Descending Boston Center
Fri 08:24:04 PM 42.8025 -72.4458 87° East 414 476 14,800 -2,300 Descending Boston Center
Fri 08:25:04 PM 42.8089 -72.2958 87° East 408 470 12,200 -2,150 Descending Boston Center
Fri 08:26:04 PM 42.8128 -72.1656 88° East 385 443 10,500 -1,100 Descending Boston Center
Fri 08:27:04 PM 42.8122 -72.0353 90° East 329 379 10,000 -550 Descending Boston Center
Fri 08:28:04 PM 42.8078 -71.9419 94° East 282 325 9,400 -1,000 Descending Boston Center
Fri 08:29:04 PM 42.7989 -71.8344 96° East 261 300 8,000 -1,350 Descending Boston Center
Fri 08:30:04 PM 42.7942 -71.7469 94° East 256 295 6,700 -1,550 Descending Boston Center
Fri 08:31:04 PM 42.7872 -71.6422 95° East 256 295 4,900 -1,700 Descending Boston Center
Fri 08:32:04 PM 42.7847 -71.5686 93° East 237 273 3,300 -900 Descending Boston Center
Fri 08:33:04 PM 42.7800 -71.4897 95° East 201 231 3,100 -100 Descending Boston Center
Fri 08:34:04 PM 42.7772 -71.4303 94° East 180 207 3,100 -500 Level Boston Center
Fri 08:35:04 PM 42.8122 -71.3817 46° Northeast 153 176 2,100 -600 Descending Boston Center
Fri 08:36:04 PM 42.8500 -71.3867 354° North 143 165 1,900 -500 Descending Boston Center
Fri 08:37:04 PM 42.8897 -71.4086 338° Northwest 145 167 1,100 -700 Descending Boston Center
Fri 08:38:04 PM 42.9169 -71.4281 332° Northwest 150 173 500 3,950 Descending Boston Center
Fri 08:39:04 PM 42.9589 -71.4586 332° Northwest 150 173 9,000 8,500 Climbing Boston Center

Login

Don't have an account? Register now (free) for customized features, flight alerts, and more!